Aviation Digital Data Service (ADDS)

Output produced by METARs form (1326 UTC 05 August 2021)
found at http://aviationweather.gov/metar/data/
 
KSNS 051253Z 30006KT 4SM -RA BR OVC003 14/13 A3001 RMK AO2 RAB29E39B51 SLP170 P0000 T01440133
KSNS 051140Z 0512/0612 30007KT 4SM BR OVC003 
     FM051700 28009KT P6SM BKN009 
     FM051900 29014KT P6SM SKC 
     FM060300 29008KT P6SM OVC008 
     FM060800 VRB06KT 6SM BR OVC007
       
KMRY 051315Z 29003KT 2SM BR OVC004 15/13 A3003 RMK AO2 T01500133
KMRY 051139Z 0512/0612 VRB05KT 2SM BR OVC002 
     TEMPO 0512/0516 1/2SM FG VV002 
     FM051700 25006KT P6SM OVC007 
     FM052000 27008KT P6SM FEW010 
     FM060200 24004KT P6SM OVC008 
     FM060800 VRB05KT 4SM BR OVC006
       
KSJC 051253Z VRB05KT 10SM BKN012 OVC016 17/13 A3000 RMK AO2 SLP157 T01670128
KSJC 051139Z 0512/0612 VRB05KT P6SM OVC014 
     FM051730 33008KT P6SM SCT013 
     FM051900 30012KT P6SM SKC 
     FM060400 30008KT P6SM SKC 
     FM061100 VRB04KT P6SM SCT012
       
KSFO 051313Z 28009KT 10SM FEW006 BKN011 15/12 A3000 RMK AO2 T01500122 $
KSFO 051139Z 0512/0618 26008KT 6SM -DZ FEW004 OVC011 
     FM051600 27013KT P6SM OVC012 
     FM051900 29020G27KT P6SM FEW012 
     FM060400 28015KT P6SM SCT012 
     FM060800 28008KT P6SM OVC010 
     FM061700 27009KT P6SM BKN014
       
KLVK 051253Z AUTO 27008KT 10SM OVC011 15/12 A2998 RMK AO2 SLP149 T01500122
KLVK 051139Z 0512/0612 27007KT P6SM OVC010 
     FM051730 28012KT P6SM FEW011 
     FM052100 29014KT P6SM SKC 
     FM060300 29006KT P6SM FEW015
       
KMCE 051253Z AUTO 30003KT 10SM CLR 17/11 A2992 RMK AO2 SLP130 T01670111
KMCE 051120Z 0512/0612 32010KT P6SM SKC 
     FM060600 32005KT P6SM SKC